sensor_id;sensor_type;location;lat;lon;timestamp;P1;durP1;ratioP1;P2;durP2;ratioP2
10991;SDS011;5549;47.028;15.514;2023-12-29T00:02:19;5.10;;;2.30;;
10991;SDS011;5549;47.028;15.514;2023-12-29T00:04:47;5.63;;;2.30;;
10991;SDS011;5549;47.028;15.514;2023-12-29T00:07:15;6.30;;;2.38;;
10991;SDS011;5549;47.028;15.514;2023-12-29T00:09:45;7.07;;;2.08;;
10991;SDS011;5549;47.028;15.514;2023-12-29T00:12:13;5.00;;;1.67;;
10991;SDS011;5549;47.028;15.514;2023-12-29T00:14:40;5.43;;;1.75;;
10991;SDS011;5549;47.028;15.514;2023-12-29T00:17:11;4.32;;;1.60;;
10991;SDS011;5549;47.028;15.514;2023-12-29T00:19:38;4.97;;;1.42;;
10991;SDS011;5549;47.028;15.514;2023-12-29T00:22:06;7.65;;;1.40;;
10991;SDS011;5549;47.028;15.514;2023-12-29T00:24:33;6.78;;;1.27;;
10991;SDS011;5549;47.028;15.514;2023-12-29T00:27:02;3.78;;;1.05;;
10991;SDS011;5549;47.028;15.514;2023-12-29T00:29:30;2.80;;;1.20;;
10991;SDS011;5549;47.028;15.514;2023-12-29T00:31:58;3.15;;;1.10;;
10991;SDS011;5549;47.028;15.514;2023-12-29T00:34:27;3.70;;;1.65;;
10991;SDS011;5549;47.028;15.514;2023-12-29T00:36:55;3.67;;;0.73;;
10991;SDS011;5549;47.028;15.514;2023-12-29T00:39:25;3.88;;;1.23;;
10991;SDS011;5549;47.028;15.514;2023-12-29T00:41:56;4.28;;;1.25;;
10991;SDS011;5549;47.028;15.514;2023-12-29T00:44:25;5.63;;;1.30;;
10991;SDS011;5549;47.028;15.514;2023-12-29T00:46:52;3.95;;;0.80;;
10991;SDS011;5549;47.028;15.514;2023-12-29T00:49:20;4.82;;;1.30;;
10991;SDS011;5549;47.028;15.514;2023-12-29T00:51:47;4.25;;;1.30;;
10991;SDS011;5549;47.028;15.514;2023-12-29T00:54:15;3.13;;;1.08;;
10991;SDS011;5549;47.028;15.514;2023-12-29T00:56:47;5.50;;;1.50;;
10991;SDS011;5549;47.028;15.514;2023-12-29T00:59:15;4.40;;;1.48;;
10991;SDS011;5549;47.028;15.514;2023-12-29T01:01:46;4.30;;;1.30;;
10991;SDS011;5549;47.028;15.514;2023-12-29T01:04:14;5.47;;;1.77;;
10991;SDS011;5549;47.028;15.514;2023-12-29T01:06:41;4.72;;;1.83;;
10991;SDS011;5549;47.028;15.514;2023-12-29T01:09:09;5.63;;;2.03;;
10991;SDS011;5549;47.028;15.514;2023-12-29T01:11:37;4.13;;;1.50;;
10991;SDS011;5549;47.028;15.514;2023-12-29T01:14:04;5.45;;;2.10;;
10991;SDS011;5549;47.028;15.514;2023-12-29T01:16:32;4.82;;;1.65;;
10991;SDS011;5549;47.028;15.514;2023-12-29T01:19:01;7.05;;;1.73;;
10991;SDS011;5549;47.028;15.514;2023-12-29T01:21:28;4.45;;;1.42;;
10991;SDS011;5549;47.028;15.514;2023-12-29T01:23:59;5.45;;;1.55;;
10991;SDS011;5549;47.028;15.514;2023-12-29T01:26:29;5.32;;;1.50;;
10991;SDS011;5549;47.028;15.514;2023-12-29T01:28:56;4.72;;;1.52;;
10991;SDS011;5549;47.028;15.514;2023-12-29T01:31:28;4.45;;;1.33;;
10991;SDS011;5549;47.028;15.514;2023-12-29T01:33:56;4.57;;;1.60;;
10991;SDS011;5549;47.028;15.514;2023-12-29T01:36:25;2.90;;;1.00;;
10991;SDS011;5549;47.028;15.514;2023-12-29T01:38:52;4.47;;;0.98;;
10991;SDS011;5549;47.028;15.514;2023-12-29T01:41:22;3.20;;;0.95;;
10991;SDS011;5549;47.028;15.514;2023-12-29T01:44:12;4.90;;;1.10;;
10991;SDS011;5549;47.028;15.514;2023-12-29T01:46:46;4.10;;;1.10;;
10991;SDS011;5549;47.028;15.514;2023-12-29T01:49:17;3.60;;;1.30;;
10991;SDS011;5549;47.028;15.514;2023-12-29T01:51:49;6.90;;;1.13;;
10991;SDS011;5549;47.028;15.514;2023-12-29T01:54:22;2.63;;;0.98;;
10991;SDS011;5549;47.028;15.514;2023-12-29T01:56:53;3.85;;;1.30;;
10991;SDS011;5549;47.028;15.514;2023-12-29T01:59:23;2.88;;;1.02;;
10991;SDS011;5549;47.028;15.514;2023-12-29T02:01:51;4.63;;;0.82;;
10991;SDS011;5549;47.028;15.514;2023-12-29T02:04:21;3.35;;;0.98;;
10991;SDS011;5549;47.028;15.514;2023-12-29T02:06:55;4.00;;;1.10;;
10991;SDS011;5549;47.028;15.514;2023-12-29T02:09:25;3.67;;;0.85;;
10991;SDS011;5549;47.028;15.514;2023-12-29T02:11:54;3.67;;;1.08;;
10991;SDS011;5549;47.028;15.514;2023-12-29T02:14:22;3.90;;;0.68;;
10991;SDS011;5549;47.028;15.514;2023-12-29T02:16:52;4.25;;;1.10;;
10991;SDS011;5549;47.028;15.514;2023-12-29T02:19:37;3.35;;;0.65;;
10991;SDS011;5549;47.028;15.514;2023-12-29T02:24:37;2.42;;;0.85;;
10991;SDS011;5549;47.028;15.514;2023-12-29T02:27:10;2.28;;;0.95;;
10991;SDS011;5549;47.028;15.514;2023-12-29T02:29:48;2.22;;;0.63;;
10991;SDS011;5549;47.028;15.514;2023-12-29T02:32:32;4.97;;;0.82;;
10991;SDS011;5549;47.028;15.514;2023-12-29T02:35:02;6.45;;;0.80;;
10991;SDS011;5549;47.028;15.514;2023-12-29T02:37:33;3.15;;;0.77;;
10991;SDS011;5549;47.028;15.514;2023-12-29T02:40:03;2.83;;;0.70;;
10991;SDS011;5549;47.028;15.514;2023-12-29T02:42:34;3.10;;;0.60;;
10991;SDS011;5549;47.028;15.514;2023-12-29T02:45:01;2.65;;;0.50;;
10991;SDS011;5549;47.028;15.514;2023-12-29T02:47:30;2.00;;;0.55;;
10991;SDS011;5549;47.028;15.514;2023-12-29T02:49:58;3.60;;;0.70;;
10991;SDS011;5549;47.028;15.514;2023-12-29T02:52:26;3.65;;;0.85;;
10991;SDS011;5549;47.028;15.514;2023-12-29T02:54:54;5.50;;;1.20;;
10991;SDS011;5549;47.028;15.514;2023-12-29T02:57:21;2.65;;;0.82;;
10991;SDS011;5549;47.028;15.514;2023-12-29T02:59:50;3.17;;;0.68;;
10991;SDS011;5549;47.028;15.514;2023-12-29T03:02:18;2.63;;;0.45;;
10991;SDS011;5549;47.028;15.514;2023-12-29T03:04:47;2.90;;;0.73;;
10991;SDS011;5549;47.028;15.514;2023-12-29T03:07:17;2.20;;;0.60;;
10991;SDS011;5549;47.028;15.514;2023-12-29T03:09:45;4.38;;;0.93;;
10991;SDS011;5549;47.028;15.514;2023-12-29T03:12:13;1.98;;;0.63;;
10991;SDS011;5549;47.028;15.514;2023-12-29T03:14:43;2.78;;;0.90;;
10991;SDS011;5549;47.028;15.514;2023-12-29T03:17:14;2.92;;;0.98;;
10991;SDS011;5549;47.028;15.514;2023-12-29T03:19:43;1.77;;;0.65;;
10991;SDS011;5549;47.028;15.514;2023-12-29T03:22:12;1.88;;;0.77;;
10991;SDS011;5549;47.028;15.514;2023-12-29T03:24:40;3.17;;;0.73;;
10991;SDS011;5549;47.028;15.514;2023-12-29T03:27:10;3.35;;;0.70;;
10991;SDS011;5549;47.028;15.514;2023-12-29T03:29:45;2.38;;;0.82;;
10991;SDS011;5549;47.028;15.514;2023-12-29T03:32:13;2.95;;;0.70;;
10991;SDS011;5549;47.028;15.514;2023-12-29T03:34:42;2.47;;;0.63;;
10991;SDS011;5549;47.028;15.514;2023-12-29T03:37:11;3.67;;;0.98;;
10991;SDS011;5549;47.028;15.514;2023-12-29T03:39:38;4.45;;;1.02;;
10991;SDS011;5549;47.028;15.514;2023-12-29T03:42:06;2.95;;;0.90;;
10991;SDS011;5549;47.028;15.514;2023-12-29T03:44:39;1.65;;;0.47;;
10991;SDS011;5549;47.028;15.514;2023-12-29T03:47:08;3.05;;;0.75;;
10991;SDS011;5549;47.028;15.514;2023-12-29T03:49:40;3.95;;;1.08;;
10991;SDS011;5549;47.028;15.514;2023-12-29T03:52:08;2.55;;;0.90;;
10991;SDS011;5549;47.028;15.514;2023-12-29T03:54:38;3.92;;;1.10;;
10991;SDS011;5549;47.028;15.514;2023-12-29T03:57:07;2.60;;;0.77;;
10991;SDS011;5549;47.028;15.514;2023-12-29T03:59:36;2.55;;;0.75;;
10991;SDS011;5549;47.028;15.514;2023-12-29T04:02:03;2.40;;;0.70;;
10991;SDS011;5549;47.028;15.514;2023-12-29T04:04:36;3.25;;;0.93;;
10991;SDS011;5549;47.028;15.514;2023-12-29T04:07:12;3.33;;;0.75;;
10991;SDS011;5549;47.028;15.514;2023-12-29T04:09:50;3.83;;;1.25;;
10991;SDS011;5549;47.028;15.514;2023-12-29T04:14:55;2.63;;;0.65;;
10991;SDS011;5549;47.028;15.514;2023-12-29T04:17:25;2.53;;;0.93;;
10991;SDS011;5549;47.028;15.514;2023-12-29T04:19:56;4.50;;;1.02;;
10991;SDS011;5549;47.028;15.514;2023-12-29T04:22:34;4.35;;;1.08;;
10991;SDS011;5549;47.028;15.514;2023-12-29T04:25:04;4.70;;;1.23;;
10991;SDS011;5549;47.028;15.514;2023-12-29T04:27:39;2.10;;;0.75;;
10991;SDS011;5549;47.028;15.514;2023-12-29T04:30:11;3.28;;;1.00;;
10991;SDS011;5549;47.028;15.514;2023-12-29T04:32:49;4.25;;;0.93;;
10991;SDS011;5549;47.028;15.514;2023-12-29T04:35:20;2.97;;;0.82;;
10991;SDS011;5549;47.028;15.514;2023-12-29T04:37:52;3.45;;;1.00;;
10991;SDS011;5549;47.028;15.514;2023-12-29T04:40:20;3.45;;;1.10;;
10991;SDS011;5549;47.028;15.514;2023-12-29T04:42:47;4.40;;;1.13;;
10991;SDS011;5549;47.028;15.514;2023-12-29T04:45:15;5.18;;;1.17;;
10991;SDS011;5549;47.028;15.514;2023-12-29T04:47:43;5.07;;;1.33;;
10991;SDS011;5549;47.028;15.514;2023-12-29T04:50:10;4.00;;;1.10;;
10991;SDS011;5549;47.028;15.514;2023-12-29T04:52:38;2.70;;;0.90;;
10991;SDS011;5549;47.028;15.514;2023-12-29T04:55:07;4.03;;;1.08;;
10991;SDS011;5549;47.028;15.514;2023-12-29T04:57:37;3.30;;;1.17;;
10991;SDS011;5549;47.028;15.514;2023-12-29T05:00:05;3.08;;;1.08;;
10991;SDS011;5549;47.028;15.514;2023-12-29T05:02:34;3.75;;;1.23;;
10991;SDS011;5549;47.028;15.514;2023-12-29T05:05:02;3.47;;;0.90;;
10991;SDS011;5549;47.028;15.514;2023-12-29T05:07:32;5.40;;;1.30;;
10991;SDS011;5549;47.028;15.514;2023-12-29T05:10:00;2.85;;;0.88;;
10991;SDS011;5549;47.028;15.514;2023-12-29T05:12:29;3.78;;;1.13;;
10991;SDS011;5549;47.028;15.514;2023-12-29T05:14:58;3.80;;;0.75;;
10991;SDS011;5549;47.028;15.514;2023-12-29T05:17:26;2.38;;;0.73;;
10991;SDS011;5549;47.028;15.514;2023-12-29T05:19:54;2.97;;;0.85;;
10991;SDS011;5549;47.028;15.514;2023-12-29T05:22:21;3.28;;;0.88;;
10991;SDS011;5549;47.028;15.514;2023-12-29T05:24:49;4.45;;;1.08;;
10991;SDS011;5549;47.028;15.514;2023-12-29T05:27:19;2.88;;;0.75;;
10991;SDS011;5549;47.028;15.514;2023-12-29T05:29:48;2.28;;;0.68;;
10991;SDS011;5549;47.028;15.514;2023-12-29T05:32:17;2.38;;;0.65;;
10991;SDS011;5549;47.028;15.514;2023-12-29T05:34:45;4.38;;;0.80;;
10991;SDS011;5549;47.028;15.514;2023-12-29T05:37:12;3.28;;;0.75;;
10991;SDS011;5549;47.028;15.514;2023-12-29T05:39:41;4.38;;;0.80;;
10991;SDS011;5549;47.028;15.514;2023-12-29T05:42:11;2.70;;;0.75;;
10991;SDS011;5549;47.028;15.514;2023-12-29T05:44:38;3.05;;;0.68;;
10991;SDS011;5549;47.028;15.514;2023-12-29T05:47:10;2.50;;;0.60;;
10991;SDS011;5549;47.028;15.514;2023-12-29T05:49:38;2.20;;;0.90;;
10991;SDS011;5549;47.028;15.514;2023-12-29T05:52:06;2.63;;;0.82;;
10991;SDS011;5549;47.028;15.514;2023-12-29T05:54:33;3.15;;;0.75;;
10991;SDS011;5549;47.028;15.514;2023-12-29T05:57:01;2.65;;;0.75;;
10991;SDS011;5549;47.028;15.514;2023-12-29T05:59:29;3.08;;;0.73;;
10991;SDS011;5549;47.028;15.514;2023-12-29T06:01:57;2.50;;;0.73;;
10991;SDS011;5549;47.028;15.514;2023-12-29T06:04:26;3.42;;;0.68;;
10991;SDS011;5549;47.028;15.514;2023-12-29T06:06:56;2.97;;;0.63;;
10991;SDS011;5549;47.028;15.514;2023-12-29T06:09:24;2.40;;;0.60;;
10991;SDS011;5549;47.028;15.514;2023-12-29T06:11:52;2.55;;;0.70;;
10991;SDS011;5549;47.028;15.514;2023-12-29T06:14:20;2.90;;;0.60;;
10991;SDS011;5549;47.028;15.514;2023-12-29T06:16:47;1.45;;;0.35;;
10991;SDS011;5549;47.028;15.514;2023-12-29T06:19:17;4.00;;;1.05;;
10991;SDS011;5549;47.028;15.514;2023-12-29T06:21:46;2.88;;;0.75;;
10991;SDS011;5549;47.028;15.514;2023-12-29T06:24:14;2.13;;;0.63;;
10991;SDS011;5549;47.028;15.514;2023-12-29T06:26:41;3.08;;;0.80;;
10991;SDS011;5549;47.028;15.514;2023-12-29T06:29:09;2.55;;;0.75;;
10991;SDS011;5549;47.028;15.514;2023-12-29T06:31:39;1.98;;;0.43;;
10991;SDS011;5549;47.028;15.514;2023-12-29T06:34:08;2.80;;;0.70;;
10991;SDS011;5549;47.028;15.514;2023-12-29T06:36:35;1.92;;;0.40;;
10991;SDS011;5549;47.028;15.514;2023-12-29T06:39:07;2.83;;;0.68;;
10991;SDS011;5549;47.028;15.514;2023-12-29T06:41:34;2.60;;;0.65;;
10991;SDS011;5549;47.028;15.514;2023-12-29T06:44:02;2.25;;;0.45;;
10991;SDS011;5549;47.028;15.514;2023-12-29T06:46:31;3.47;;;0.70;;
10991;SDS011;5549;47.028;15.514;2023-12-29T06:48:58;1.60;;;0.52;;
10991;SDS011;5549;47.028;15.514;2023-12-29T06:51:26;2.90;;;0.55;;
10991;SDS011;5549;47.028;15.514;2023-12-29T06:53:53;2.47;;;0.63;;
10991;SDS011;5549;47.028;15.514;2023-12-29T06:56:22;2.47;;;0.73;;
10991;SDS011;5549;47.028;15.514;2023-12-29T06:58:51;2.10;;;0.50;;
10991;SDS011;5549;47.028;15.514;2023-12-29T07:01:19;2.88;;;0.63;;
10991;SDS011;5549;47.028;15.514;2023-12-29T07:03:46;1.95;;;0.55;;
10991;SDS011;5549;47.028;15.514;2023-12-29T07:06:14;3.72;;;0.60;;
10991;SDS011;5549;47.028;15.514;2023-12-29T07:08:41;1.63;;;0.38;;
10991;SDS011;5549;47.028;15.514;2023-12-29T07:11:11;2.00;;;0.63;;
10991;SDS011;5549;47.028;15.514;2023-12-29T07:13:42;2.15;;;0.63;;
10991;SDS011;5549;47.028;15.514;2023-12-29T07:16:10;2.85;;;0.52;;
10991;SDS011;5549;47.028;15.514;2023-12-29T07:18:40;2.80;;;0.70;;
10991;SDS011;5549;47.028;15.514;2023-12-29T07:21:10;2.78;;;0.70;;
10991;SDS011;5549;47.028;15.514;2023-12-29T07:23:38;2.60;;;0.68;;
10991;SDS011;5549;47.028;15.514;2023-12-29T07:26:05;3.05;;;0.68;;
10991;SDS011;5549;47.028;15.514;2023-12-29T07:28:35;3.15;;;1.02;;
10991;SDS011;5549;47.028;15.514;2023-12-29T07:31:04;3.13;;;0.98;;
10991;SDS011;5549;47.028;15.514;2023-12-29T07:33:33;3.53;;;0.85;;
10991;SDS011;5549;47.028;15.514;2023-12-29T07:36:01;3.00;;;0.73;;
10991;SDS011;5549;47.028;15.514;2023-12-29T07:38:29;2.38;;;0.63;;
10991;SDS011;5549;47.028;15.514;2023-12-29T07:40:56;3.95;;;0.90;;
10991;SDS011;5549;47.028;15.514;2023-12-29T07:43:24;2.55;;;0.88;;
10991;SDS011;5549;47.028;15.514;2023-12-29T07:45:51;3.25;;;0.80;;
10991;SDS011;5549;47.028;15.514;2023-12-29T07:48:20;3.35;;;0.80;;
10991;SDS011;5549;47.028;15.514;2023-12-29T07:50:48;3.03;;;0.80;;
10991;SDS011;5549;47.028;15.514;2023-12-29T07:53:16;3.20;;;1.13;;
10991;SDS011;5549;47.028;15.514;2023-12-29T07:55:44;3.72;;;0.95;;
10991;SDS011;5549;47.028;15.514;2023-12-29T07:58:14;3.38;;;1.00;;
10991;SDS011;5549;47.028;15.514;2023-12-29T08:00:42;2.28;;;0.57;;
10991;SDS011;5549;47.028;15.514;2023-12-29T08:03:09;3.45;;;1.10;;
10991;SDS011;5549;47.028;15.514;2023-12-29T08:05:40;3.25;;;0.93;;
10991;SDS011;5549;47.028;15.514;2023-12-29T08:08:08;3.55;;;0.93;;
10991;SDS011;5549;47.028;15.514;2023-12-29T08:10:36;4.20;;;0.88;;
10991;SDS011;5549;47.028;15.514;2023-12-29T08:13:04;2.65;;;0.88;;
10991;SDS011;5549;47.028;15.514;2023-12-29T08:15:34;2.85;;;1.05;;
10991;SDS011;5549;47.028;15.514;2023-12-29T08:18:02;4.05;;;1.17;;
10991;SDS011;5549;47.028;15.514;2023-12-29T08:20:30;2.67;;;0.80;;
10991;SDS011;5549;47.028;15.514;2023-12-29T08:22:59;2.80;;;0.95;;
10991;SDS011;5549;47.028;15.514;2023-12-29T08:25:30;2.85;;;0.80;;
10991;SDS011;5549;47.028;15.514;2023-12-29T08:27:58;4.03;;;0.82;;
10991;SDS011;5549;47.028;15.514;2023-12-29T08:30:26;3.72;;;0.80;;
10991;SDS011;5549;47.028;15.514;2023-12-29T08:32:53;3.42;;;0.80;;
10991;SDS011;5549;47.028;15.514;2023-12-29T08:35:21;2.75;;;1.02;;
10991;SDS011;5549;47.028;15.514;2023-12-29T08:37:48;3.22;;;1.17;;
10991;SDS011;5549;47.028;15.514;2023-12-29T08:40:17;2.78;;;1.00;;
10991;SDS011;5549;47.028;15.514;2023-12-29T08:42:45;5.45;;;1.42;;
10991;SDS011;5549;47.028;15.514;2023-12-29T08:45:13;2.95;;;1.08;;
10991;SDS011;5549;47.028;15.514;2023-12-29T08:47:41;4.22;;;1.50;;
10991;SDS011;5549;47.028;15.514;2023-12-29T08:50:09;2.95;;;0.95;;
10991;SDS011;5549;47.028;15.514;2023-12-29T08:52:36;3.47;;;1.13;;
10991;SDS011;5549;47.028;15.514;2023-12-29T08:55:04;2.90;;;1.08;;
10991;SDS011;5549;47.028;15.514;2023-12-29T08:57:35;3.40;;;1.35;;
10991;SDS011;5549;47.028;15.514;2023-12-29T09:00:03;4.78;;;1.80;;
10991;SDS011;5549;47.028;15.514;2023-12-29T09:02:35;4.10;;;1.77;;
10991;SDS011;5549;47.028;15.514;2023-12-29T09:05:02;4.47;;;2.40;;
10991;SDS011;5549;47.028;15.514;2023-12-29T09:07:34;5.45;;;2.50;;
10991;SDS011;5549;47.028;15.514;2023-12-29T09:10:02;4.57;;;2.55;;
10991;SDS011;5549;47.028;15.514;2023-12-29T09:12:37;4.95;;;1.90;;
10991;SDS011;5549;47.028;15.514;2023-12-29T09:15:05;4.93;;;2.20;;
10991;SDS011;5549;47.028;15.514;2023-12-29T09:17:34;4.60;;;2.03;;
10991;SDS011;5549;47.028;15.514;2023-12-29T09:20:01;5.20;;;2.67;;
10991;SDS011;5549;47.028;15.514;2023-12-29T09:22:30;3.75;;;1.98;;
10991;SDS011;5549;47.028;15.514;2023-12-29T09:24:57;4.10;;;1.70;;
10991;SDS011;5549;47.028;15.514;2023-12-29T09:27:25;3.90;;;2.03;;
10991;SDS011;5549;47.028;15.514;2023-12-29T09:29:54;5.70;;;2.42;;
10991;SDS011;5549;47.028;15.514;2023-12-29T09:32:21;4.80;;;2.28;;
10991;SDS011;5549;47.028;15.514;2023-12-29T09:34:49;4.28;;;2.33;;
10991;SDS011;5549;47.028;15.514;2023-12-29T09:37:19;3.72;;;1.70;;
10991;SDS011;5549;47.028;15.514;2023-12-29T09:39:47;4.43;;;2.35;;
10991;SDS011;5549;47.028;15.514;2023-12-29T09:42:17;4.72;;;1.98;;
10991;SDS011;5549;47.028;15.514;2023-12-29T09:44:49;5.03;;;2.25;;
10991;SDS011;5549;47.028;15.514;2023-12-29T09:47:20;4.63;;;2.63;;
10991;SDS011;5549;47.028;15.514;2023-12-29T09:49:51;4.65;;;1.90;;
10991;SDS011;5549;47.028;15.514;2023-12-29T09:52:20;5.30;;;1.90;;
10991;SDS011;5549;47.028;15.514;2023-12-29T09:54:48;4.20;;;2.05;;
10991;SDS011;5549;47.028;15.514;2023-12-29T09:57:18;5.68;;;2.10;;
10991;SDS011;5549;47.028;15.514;2023-12-29T09:59:46;5.20;;;2.42;;
10991;SDS011;5549;47.028;15.514;2023-12-29T10:02:17;4.63;;;2.20;;
10991;SDS011;5549;47.028;15.514;2023-12-29T10:04:47;3.42;;;1.70;;
10991;SDS011;5549;47.028;15.514;2023-12-29T10:07:17;4.97;;;2.00;;
10991;SDS011;5549;47.028;15.514;2023-12-29T10:09:50;4.65;;;2.20;;
10991;SDS011;5549;47.028;15.514;2023-12-29T10:12:21;5.28;;;2.28;;
10991;SDS011;5549;47.028;15.514;2023-12-29T10:14:53;4.05;;;2.15;;
10991;SDS011;5549;47.028;15.514;2023-12-29T10:17:39;4.50;;;2.13;;
10991;SDS011;5549;47.028;15.514;2023-12-29T10:20:22;3.92;;;2.10;;
10991;SDS011;5549;47.028;15.514;2023-12-29T10:23:05;4.72;;;2.30;;
10991;SDS011;5549;47.028;15.514;2023-12-29T10:25:38;3.88;;;2.00;;
10991;SDS011;5549;47.028;15.514;2023-12-29T10:28:06;4.97;;;2.22;;
10991;SDS011;5549;47.028;15.514;2023-12-29T10:30:36;5.32;;;2.95;;
10991;SDS011;5549;47.028;15.514;2023-12-29T10:33:06;4.43;;;2.47;;
10991;SDS011;5549;47.028;15.514;2023-12-29T10:35:37;4.32;;;1.95;;
10991;SDS011;5549;47.028;15.514;2023-12-29T10:38:08;4.88;;;2.60;;
10991;SDS011;5549;47.028;15.514;2023-12-29T10:40:37;7.90;;;3.80;;
10991;SDS011;5549;47.028;15.514;2023-12-29T10:43:05;5.75;;;2.30;;
10991;SDS011;5549;47.028;15.514;2023-12-29T10:45:34;4.93;;;1.92;;
10991;SDS011;5549;47.028;15.514;2023-12-29T10:48:02;3.92;;;1.98;;
10991;SDS011;5549;47.028;15.514;2023-12-29T10:50:31;6.97;;;3.17;;
10991;SDS011;5549;47.028;15.514;2023-12-29T10:53:10;6.00;;;2.55;;
10991;SDS011;5549;47.028;15.514;2023-12-29T10:55:38;5.88;;;3.67;;
10991;SDS011;5549;47.028;15.514;2023-12-29T10:58:07;5.20;;;2.55;;
10991;SDS011;5549;47.028;15.514;2023-12-29T11:00:34;5.05;;;3.33;;
10991;SDS011;5549;47.028;15.514;2023-12-29T11:03:01;4.72;;;2.63;;
10991;SDS011;5549;47.028;15.514;2023-12-29T11:05:31;4.75;;;2.22;;
10991;SDS011;5549;47.028;15.514;2023-12-29T11:07:59;6.22;;;2.85;;
10991;SDS011;5549;47.028;15.514;2023-12-29T11:10:26;4.60;;;2.22;;
10991;SDS011;5549;47.028;15.514;2023-12-29T11:12:58;4.20;;;1.88;;
10991;SDS011;5549;47.028;15.514;2023-12-29T11:15:25;3.22;;;1.30;;
10991;SDS011;5549;47.028;15.514;2023-12-29T11:17:57;4.13;;;0.85;;
10991;SDS011;5549;47.028;15.514;2023-12-29T11:20:25;3.53;;;1.85;;
10991;SDS011;5549;47.028;15.514;2023-12-29T11:22:54;4.65;;;1.80;;
10991;SDS011;5549;47.028;15.514;2023-12-29T11:25:21;4.43;;;2.30;;
10991;SDS011;5549;47.028;15.514;2023-12-29T11:27:51;3.85;;;2.13;;
10991;SDS011;5549;47.028;15.514;2023-12-29T11:30:21;4.80;;;1.88;;
10991;SDS011;5549;47.028;15.514;2023-12-29T11:32:49;5.03;;;2.25;;
10991;SDS011;5549;47.028;15.514;2023-12-29T11:35:26;4.38;;;2.28;;
10991;SDS011;5549;47.028;15.514;2023-12-29T11:38:11;4.25;;;2.28;;
10991;SDS011;5549;47.028;15.514;2023-12-29T11:40:53;4.43;;;2.15;;
10991;SDS011;5549;47.028;15.514;2023-12-29T11:43:30;4.78;;;2.40;;
10991;SDS011;5549;47.028;15.514;2023-12-29T11:45:57;4.78;;;2.40;;
10991;SDS011;5549;47.028;15.514;2023-12-29T11:51:33;5.80;;;1.92;;
10991;SDS011;5549;47.028;15.514;2023-12-29T11:54:04;3.35;;;1.70;;
10991;SDS011;5549;47.028;15.514;2023-12-29T11:56:36;5.97;;;1.90;;
10991;SDS011;5549;47.028;15.514;2023-12-29T11:59:12;3.55;;;1.75;;
10991;SDS011;5549;47.028;15.514;2023-12-29T12:01:49;3.28;;;1.50;;
10991;SDS011;5549;47.028;15.514;2023-12-29T12:04:34;3.78;;;1.73;;
10991;SDS011;5549;47.028;15.514;2023-12-29T12:07:04;4.28;;;2.28;;
10991;SDS011;5549;47.028;15.514;2023-12-29T12:09:34;4.45;;;1.95;;
10991;SDS011;5549;47.028;15.514;2023-12-29T12:12:05;3.22;;;1.88;;
10991;SDS011;5549;47.028;15.514;2023-12-29T12:14:43;5.13;;;2.38;;
10991;SDS011;5549;47.028;15.514;2023-12-29T12:17:30;3.55;;;1.88;;
10991;SDS011;5549;47.028;15.514;2023-12-29T12:20:00;5.60;;;2.28;;
10991;SDS011;5549;47.028;15.514;2023-12-29T12:22:30;4.32;;;1.77;;
10991;SDS011;5549;47.028;15.514;2023-12-29T12:25:00;4.22;;;2.00;;
10991;SDS011;5549;47.028;15.514;2023-12-29T12:27:28;3.40;;;1.80;;
10991;SDS011;5549;47.028;15.514;2023-12-29T12:29:57;3.70;;;1.60;;
10991;SDS011;5549;47.028;15.514;2023-12-29T12:32:26;4.03;;;2.03;;
10991;SDS011;5549;47.028;15.514;2023-12-29T12:34:57;3.53;;;1.90;;
10991;SDS011;5549;47.028;15.514;2023-12-29T12:37:27;4.65;;;1.90;;
10991;SDS011;5549;47.028;15.514;2023-12-29T12:39:56;3.88;;;1.50;;
10991;SDS011;5549;47.028;15.514;2023-12-29T12:42:25;4.18;;;1.88;;
10991;SDS011;5549;47.028;15.514;2023-12-29T12:44:54;3.10;;;0.93;;
10991;SDS011;5549;47.028;15.514;2023-12-29T12:47:32;3.47;;;1.60;;
10991;SDS011;5549;47.028;15.514;2023-12-29T12:50:04;4.47;;;1.75;;
10991;SDS011;5549;47.028;15.514;2023-12-29T12:52:35;7.47;;;1.90;;
10991;SDS011;5549;47.028;15.514;2023-12-29T12:55:03;3.00;;;1.35;;
10991;SDS011;5549;47.028;15.514;2023-12-29T12:57:33;4.03;;;1.80;;
10991;SDS011;5549;47.028;15.514;2023-12-29T13:00:05;4.93;;;1.67;;
10991;SDS011;5549;47.028;15.514;2023-12-29T13:02:34;3.80;;;1.52;;
10991;SDS011;5549;47.028;15.514;2023-12-29T13:05:03;5.97;;;1.60;;
10991;SDS011;5549;47.028;15.514;2023-12-29T13:07:33;3.97;;;1.58;;
10991;SDS011;5549;47.028;15.514;2023-12-29T13:10:01;5.20;;;1.98;;
10991;SDS011;5549;47.028;15.514;2023-12-29T13:12:30;4.03;;;1.73;;
10991;SDS011;5549;47.028;15.514;2023-12-29T13:15:06;4.07;;;1.58;;
10991;SDS011;5549;47.028;15.514;2023-12-29T13:17:37;3.72;;;1.67;;
10991;SDS011;5549;47.028;15.514;2023-12-29T13:20:05;4.40;;;1.65;;
10991;SDS011;5549;47.028;15.514;2023-12-29T13:22:34;2.92;;;1.23;;
10991;SDS011;5549;47.028;15.514;2023-12-29T13:25:05;3.08;;;1.60;;
10991;SDS011;5549;47.028;15.514;2023-12-29T13:27:33;3.83;;;1.40;;
10991;SDS011;5549;47.028;15.514;2023-12-29T13:30:07;2.88;;;1.13;;
10991;SDS011;5549;47.028;15.514;2023-12-29T13:32:37;3.05;;;1.30;;
10991;SDS011;5549;47.028;15.514;2023-12-29T13:35:08;3.53;;;1.58;;
10991;SDS011;5549;47.028;15.514;2023-12-29T13:37:43;4.88;;;1.13;;
10991;SDS011;5549;47.028;15.514;2023-12-29T13:40:16;2.95;;;1.10;;
10991;SDS011;5549;47.028;15.514;2023-12-29T13:42:50;3.50;;;1.17;;
10991;SDS011;5549;47.028;15.514;2023-12-29T13:45:27;6.05;;;1.00;;
10991;SDS011;5549;47.028;15.514;2023-12-29T13:47:56;2.45;;;0.82;;
10991;SDS011;5549;47.028;15.514;2023-12-29T13:50:25;3.10;;;0.90;;
10991;SDS011;5549;47.028;15.514;2023-12-29T13:52:53;4.55;;;0.90;;
10991;SDS011;5549;47.028;15.514;2023-12-29T13:55:21;2.60;;;0.73;;
10991;SDS011;5549;47.028;15.514;2023-12-29T13:57:51;2.63;;;0.88;;
10991;SDS011;5549;47.028;15.514;2023-12-29T14:00:19;2.00;;;0.68;;
10991;SDS011;5549;47.028;15.514;2023-12-29T14:03:01;3.67;;;0.90;;
10991;SDS011;5549;47.028;15.514;2023-12-29T14:05:35;2.95;;;0.90;;
10991;SDS011;5549;47.028;15.514;2023-12-29T14:08:16;3.08;;;0.90;;
10991;SDS011;5549;47.028;15.514;2023-12-29T14:10:48;2.78;;;0.98;;
10991;SDS011;5549;47.028;15.514;2023-12-29T14:13:16;2.67;;;1.48;;
10991;SDS011;5549;47.028;15.514;2023-12-29T14:15:44;4.35;;;1.35;;
10991;SDS011;5549;47.028;15.514;2023-12-29T14:21:00;4.22;;;1.33;;
10991;SDS011;5549;47.028;15.514;2023-12-29T14:23:28;3.15;;;1.33;;
10991;SDS011;5549;47.028;15.514;2023-12-29T14:26:01;4.88;;;2.03;;
10991;SDS011;5549;47.028;15.514;2023-12-29T14:28:29;3.80;;;1.88;;
10991;SDS011;5549;47.028;15.514;2023-12-29T14:31:00;3.90;;;1.90;;
10991;SDS011;5549;47.028;15.514;2023-12-29T14:33:30;5.25;;;1.90;;
10991;SDS011;5549;47.028;15.514;2023-12-29T14:35:57;3.40;;;2.05;;
10991;SDS011;5549;47.028;15.514;2023-12-29T14:38:25;3.40;;;1.80;;
10991;SDS011;5549;47.028;15.514;2023-12-29T14:40:53;5.28;;;2.40;;
10991;SDS011;5549;47.028;15.514;2023-12-29T14:43:20;5.20;;;1.80;;
10991;SDS011;5549;47.028;15.514;2023-12-29T14:45:48;3.50;;;1.63;;
10991;SDS011;5549;47.028;15.514;2023-12-29T14:48:16;5.20;;;1.60;;
10991;SDS011;5549;47.028;15.514;2023-12-29T14:50:45;3.10;;;1.52;;
10991;SDS011;5549;47.028;15.514;2023-12-29T14:53:13;3.67;;;1.50;;
10991;SDS011;5549;47.028;15.514;2023-12-29T14:55:40;4.93;;;2.10;;
10991;SDS011;5549;47.028;15.514;2023-12-29T14:58:08;5.75;;;2.05;;
10991;SDS011;5549;47.028;15.514;2023-12-29T15:00:36;4.22;;;1.73;;
10991;SDS011;5549;47.028;15.514;2023-12-29T15:03:04;3.08;;;1.23;;
10991;SDS011;5549;47.028;15.514;2023-12-29T15:05:31;2.60;;;1.13;;
10991;SDS011;5549;47.028;15.514;2023-12-29T15:08:04;2.55;;;1.17;;
10991;SDS011;5549;47.028;15.514;2023-12-29T15:10:34;5.75;;;1.48;;
10991;SDS011;5549;47.028;15.514;2023-12-29T15:13:02;3.75;;;1.52;;
10991;SDS011;5549;47.028;15.514;2023-12-29T15:15:32;2.70;;;1.30;;